createdAt,value
2023-12-30T00:01:14.600Z,15.99
2023-12-30T00:06:19.372Z,15.99
2023-12-30T00:11:22.364Z,15.98
2023-12-30T00:16:28.634Z,15.99
2023-12-30T00:21:31.555Z,16.00
2023-12-30T00:26:34.501Z,16.01
2023-12-30T00:31:37.407Z,16.01
2023-12-30T00:36:45.136Z,16.02
2023-12-30T00:41:48.035Z,16.03
2023-12-30T00:46:50.977Z,16.04
2023-12-30T00:51:53.883Z,16.04
2023-12-30T00:56:56.804Z,16.05
2023-12-30T01:02:00.891Z,16.05
2023-12-30T01:07:04.189Z,16.05
2023-12-30T01:12:07.776Z,16.05
2023-12-30T01:17:10.648Z,16.05
2023-12-30T01:22:13.731Z,16.04
2023-12-30T01:27:16.600Z,16.04
2023-12-30T01:32:19.380Z,16.03
2023-12-30T01:37:22.314Z,16.03
2023-12-30T01:42:25.231Z,16.03
2023-12-30T01:47:28.125Z,16.03
2023-12-30T01:52:31.363Z,16.03
2023-12-30T01:57:34.297Z,16.02
2023-12-30T02:02:37.107Z,16.02
2023-12-30T02:07:40.049Z,16.02
2023-12-30T02:12:43.228Z,16.01
2023-12-30T02:17:46.396Z,16.01
2023-12-30T02:22:50.302Z,16.02
2023-12-30T02:27:53.144Z,16.01
2023-12-30T02:32:59.172Z,16.01
2023-12-30T02:38:02.421Z,16.01
2023-12-30T02:43:05.720Z,16.00
2023-12-30T02:48:08.841Z,16.01
2023-12-30T02:53:11.754Z,16.02
2023-12-30T02:58:14.630Z,16.04
2023-12-30T03:03:17.636Z,16.05
2023-12-30T03:08:20.851Z,16.05
2023-12-30T03:13:23.754Z,16.06
2023-12-30T03:18:26.789Z,16.07
2023-12-30T03:23:29.905Z,16.08
2023-12-30T03:28:33.153Z,16.08
2023-12-30T03:33:36.240Z,16.08
2023-12-30T03:38:39.081Z,16.08
2023-12-30T03:43:42.068Z,16.07
2023-12-30T03:48:45.167Z,16.07
2023-12-30T03:53:49.066Z,16.06
2023-12-30T03:58:52.189Z,16.06
2023-12-30T04:03:55.139Z,16.06
2023-12-30T04:08:58.059Z,16.05
2023-12-30T04:14:00.959Z,16.05
2023-12-30T04:19:03.906Z,16.05
2023-12-30T04:24:07.102Z,16.04
2023-12-30T04:29:11.111Z,16.04
2023-12-30T04:34:14.290Z,16.05
2023-12-30T04:39:17.630Z,16.05
2023-12-30T04:44:20.793Z,16.04
2023-12-30T04:49:23.856Z,16.04
2023-12-30T04:54:26.790Z,16.03
2023-12-30T04:59:29.697Z,16.04
2023-12-30T05:04:32.596Z,16.04
2023-12-30T05:09:36.816Z,16.03
2023-12-30T05:14:39.859Z,16.04
2023-12-30T05:19:42.765Z,16.04
2023-12-30T05:24:45.623Z,16.05
2023-12-30T05:29:48.469Z,16.07
2023-12-30T05:34:51.310Z,16.08
2023-12-30T05:39:55.290Z,16.08
2023-12-30T05:44:59.108Z,16.09
2023-12-30T05:50:02.207Z,16.10
2023-12-30T05:55:05.634Z,16.11
2023-12-30T06:00:09.476Z,16.10
2023-12-30T06:05:12.544Z,16.10
2023-12-30T06:10:15.471Z,16.10
2023-12-30T06:15:20.021Z,16.10
2023-12-30T06:20:22.862Z,16.10
2023-12-30T06:25:25.721Z,16.09
2023-12-30T06:30:28.856Z,16.09
2023-12-30T06:35:31.908Z,16.08
2023-12-30T06:40:35.494Z,16.08
2023-12-30T06:45:38.576Z,16.07
2023-12-30T06:50:41.358Z,16.07
2023-12-30T07:00:48.241Z,16.06
2023-12-30T07:05:51.113Z,16.06
2023-12-30T07:10:53.931Z,16.06
2023-12-30T07:15:57.017Z,16.06
2023-12-30T07:20:59.968Z,16.05
2023-12-30T07:26:02.896Z,16.06
2023-12-30T07:31:05.835Z,16.06
2023-12-30T07:36:09.157Z,16.06
2023-12-30T07:41:15.692Z,16.06
2023-12-30T07:46:18.674Z,16.06
2023-12-30T07:51:21.644Z,16.06
2023-12-30T07:56:24.485Z,16.05
2023-12-30T08:01:28.024Z,16.05
2023-12-30T08:06:31.087Z,16.05
2023-12-30T08:11:49.765Z,16.06
2023-12-30T08:17:00.150Z,16.07
2023-12-30T08:22:04.554Z,16.09
2023-12-30T08:27:07.428Z,16.10
2023-12-30T08:32:10.317Z,16.12
2023-12-30T08:37:13.190Z,16.13
2023-12-30T08:42:16.204Z,16.14
2023-12-30T08:47:19.348Z,16.13
2023-12-30T08:52:22.469Z,16.14
2023-12-30T08:57:25.576Z,16.14
2023-12-30T09:02:28.520Z,16.13
2023-12-30T09:07:32.230Z,16.14
2023-12-30T09:12:35.200Z,16.13
2023-12-30T09:17:38.333Z,16.12
2023-12-30T09:22:41.295Z,16.11
2023-12-30T09:27:44.275Z,16.10
2023-12-30T09:32:47.211Z,16.10
2023-12-30T09:37:50.264Z,16.11
2023-12-30T09:42:53.155Z,16.10
2023-12-30T09:47:56.058Z,16.10
2023-12-30T09:52:58.917Z,16.10
2023-12-30T09:58:02.261Z,16.11
2023-12-30T10:03:05.648Z,16.11
2023-12-30T10:08:08.901Z,16.10
2023-12-30T10:13:16.017Z,16.11
2023-12-30T10:18:19.282Z,16.11
2023-12-30T10:23:22.820Z,16.11
2023-12-30T10:28:25.712Z,16.11
2023-12-30T10:33:28.677Z,16.12
2023-12-30T10:38:31.630Z,16.13
2023-12-30T10:43:34.712Z,16.15
2023-12-30T10:48:41.110Z,16.16
2023-12-30T10:53:46.512Z,16.18
2023-12-30T10:58:49.694Z,16.19
2023-12-30T11:03:53.397Z,16.21
2023-12-30T11:09:00.431Z,16.20
2023-12-30T11:14:05.093Z,16.20
2023-12-30T11:19:07.991Z,16.20
2023-12-30T11:24:12.273Z,16.19
2023-12-30T11:29:18.246Z,16.18
2023-12-30T11:34:21.466Z,16.17
2023-12-30T11:39:29.873Z,16.17
2023-12-30T11:44:32.829Z,16.16
2023-12-30T11:49:37.254Z,16.16
2023-12-30T11:54:41.329Z,16.16
2023-12-30T11:59:44.150Z,16.16
2023-12-30T12:04:47.765Z,16.16
2023-12-30T12:09:50.874Z,16.16
2023-12-30T12:14:55.154Z,16.16
2023-12-30T12:19:58.534Z,16.15
2023-12-30T12:25:03.658Z,16.14
2023-12-30T12:30:09.199Z,16.14
2023-12-30T12:35:12.830Z,16.14
2023-12-30T12:40:15.936Z,16.14
2023-12-30T12:45:18.973Z,16.14
2023-12-30T12:50:21.860Z,16.13
2023-12-30T12:55:24.927Z,16.13
2023-12-30T13:00:27.856Z,16.12
2023-12-30T13:05:30.699Z,16.12
2023-12-30T13:10:33.694Z,16.11
2023-12-30T13:15:36.996Z,16.12
2023-12-30T13:20:42.726Z,16.11
2023-12-30T13:25:48.810Z,16.11
2023-12-30T13:30:52.367Z,16.13
2023-12-30T13:35:55.271Z,16.13
2023-12-30T13:41:01.540Z,16.14
2023-12-30T13:46:23.378Z,16.15
2023-12-30T13:51:26.389Z,16.17
2023-12-30T13:56:29.853Z,16.17
2023-12-30T14:01:34.638Z,16.17
2023-12-30T14:06:40.547Z,16.17
2023-12-30T14:11:49.447Z,16.18
2023-12-30T14:16:52.331Z,16.18
2023-12-30T14:21:57.315Z,16.17
2023-12-30T14:27:01.166Z,16.17
2023-12-30T14:32:06.386Z,16.16
2023-12-30T14:37:10.357Z,16.15
2023-12-30T14:42:13.421Z,16.15
2023-12-30T14:47:17.039Z,16.14
2023-12-30T14:52:20.053Z,16.14
2023-12-30T14:57:22.921Z,16.13
2023-12-30T15:02:27.193Z,16.12
2023-12-30T15:07:30.314Z,16.12
2023-12-30T15:12:33.491Z,16.12
2023-12-30T15:17:36.587Z,16.11
2023-12-30T15:22:40.596Z,16.11
2023-12-30T15:27:44.746Z,16.10
2023-12-30T15:32:48.174Z,16.11
2023-12-30T15:37:51.362Z,16.10
2023-12-30T15:42:54.352Z,16.09
2023-12-30T15:47:57.228Z,16.10
2023-12-30T15:53:00.362Z,16.09
2023-12-30T15:58:03.556Z,16.08
2023-12-30T16:03:06.693Z,16.08
2023-12-30T16:08:11.059Z,16.08
2023-12-30T16:13:14.598Z,16.08
2023-12-30T16:18:18.233Z,16.10
2023-12-30T16:23:21.218Z,16.11
2023-12-30T16:28:24.150Z,16.12
2023-12-30T16:33:27.053Z,16.12
2023-12-30T16:38:30.023Z,16.14
2023-12-30T16:43:35.180Z,16.15
2023-12-30T16:48:38.177Z,16.14
2023-12-30T16:53:42.744Z,16.15
2023-12-30T16:58:45.807Z,16.14
2023-12-30T17:03:48.739Z,16.14
2023-12-30T17:08:52.161Z,16.13
2023-12-30T17:13:55.111Z,16.12
2023-12-30T17:18:59.379Z,16.12
2023-12-30T17:24:03.130Z,16.11
2023-12-30T17:29:06.061Z,16.10
2023-12-30T17:34:09.807Z,16.10
2023-12-30T17:39:12.788Z,16.09
2023-12-30T17:44:15.595Z,16.08
2023-12-30T17:49:18.655Z,16.08
2023-12-30T17:54:21.523Z,16.07
2023-12-30T17:59:24.380Z,16.06
2023-12-30T18:04:27.229Z,16.05
2023-12-30T18:09:30.172Z,16.05
2023-12-30T18:14:33.160Z,16.05
2023-12-30T18:19:36.075Z,16.05
2023-12-30T18:24:39.765Z,16.04
2023-12-30T18:29:43.204Z,16.04
2023-12-30T18:34:46.055Z,16.05
2023-12-30T18:39:49.157Z,16.05
2023-12-30T18:44:51.941Z,16.07
2023-12-30T18:49:55.136Z,16.09
2023-12-30T18:54:58.119Z,16.09
2023-12-30T19:00:00.957Z,16.10
2023-12-30T19:05:05.007Z,16.11
2023-12-30T19:10:08.893Z,16.11
2023-12-30T19:15:11.850Z,16.12
2023-12-30T19:20:14.713Z,16.12
2023-12-30T19:25:17.583Z,16.11
2023-12-30T19:30:20.429Z,16.10
2023-12-30T19:35:23.914Z,16.10
2023-12-30T19:40:27.258Z,16.10
2023-12-30T19:45:30.212Z,16.10
2023-12-30T19:50:33.412Z,16.09
2023-12-30T19:55:36.498Z,16.08
2023-12-30T20:00:39.619Z,16.08
2023-12-30T20:05:42.548Z,16.07
2023-12-30T20:10:45.516Z,16.06
2023-12-30T20:15:48.829Z,16.05
2023-12-30T20:20:51.662Z,16.04
2023-12-30T20:25:54.603Z,16.03
2023-12-30T20:30:57.566Z,16.02
2023-12-30T20:36:00.638Z,16.02
2023-12-30T20:41:03.592Z,16.01
2023-12-30T20:46:10.370Z,16.01
2023-12-30T20:51:13.990Z,16.01
2023-12-30T20:56:16.813Z,16.00
2023-12-30T21:01:20.090Z,15.99
2023-12-30T21:06:23.012Z,15.98
2023-12-30T21:11:26.849Z,15.98
2023-12-30T21:16:30.228Z,15.98
2023-12-30T21:21:33.149Z,15.98
2023-12-30T21:26:36.036Z,16.00
2023-12-30T21:31:43.009Z,16.02
2023-12-30T21:36:45.884Z,16.03
2023-12-30T21:41:48.753Z,16.05
2023-12-30T21:46:51.648Z,16.05
2023-12-30T21:51:54.531Z,16.06
2023-12-30T21:56:57.363Z,16.05
2023-12-30T22:02:00.242Z,16.04
2023-12-30T22:07:03.249Z,16.05
2023-12-30T22:12:06.494Z,16.04
2023-12-30T22:17:11.016Z,16.03
2023-12-30T22:22:14.448Z,16.03
2023-12-30T22:27:17.289Z,16.03
2023-12-30T22:32:20.651Z,16.02
2023-12-30T22:37:23.673Z,16.02
2023-12-30T22:42:26.531Z,16.01
2023-12-30T22:47:29.507Z,16.00
2023-12-30T22:52:36.346Z,16.00
2023-12-30T22:57:39.235Z,15.98
2023-12-30T23:02:42.176Z,15.98
2023-12-30T23:07:45.704Z,15.98
2023-12-30T23:12:48.594Z,15.98
2023-12-30T23:17:51.558Z,15.97
2023-12-30T23:22:54.708Z,15.97
2023-12-30T23:27:57.628Z,15.96
2023-12-30T23:33:00.580Z,15.96
2023-12-30T23:38:03.723Z,15.94
2023-12-30T23:43:06.833Z,15.95
2023-12-30T23:48:10.097Z,15.94
2023-12-30T23:53:14.196Z,15.93
2023-12-30T23:58:17.538Z,15.94
